RPLL/MNL METAR and TAF weather

Enter ICAO airport designator
Station Type Date Time Source
RPLL METAR 2018/12/10 01:00 UTC NOAA

RPLL 100100Z 16003KT 100V210 9999 FEW025 30/21 Q1014 NOSIG RMK A2994


Station Type Date Time Source
RPLL Decoded METAR 2018/12/10 01:00 UTC NOAA

Ninoy Aquino Inter-National Airport, Philippines (RPLL) 14-31N 121-00E 15M
Dec 09, 2018 - 08:00 PM EST / 2018.12.10 0100 UTC
Wind: from the SSE (160 degrees) at 3 MPH (3 KT) (direction variable):0
Visibility: greater than 7 mile(s):0
Sky conditions: mostly clear
Temperature: 86 F (30 C)
Dew Point: 69 F (21 C)
Relative Humidity: 58%
Pressure (altimeter): 29.94 in. Hg (1014 hPa)
ob: RPLL 100100Z 16003KT 100V210 9999 FEW025 30/21 Q1014 NOSIG RMK A2994
cycle: 1

Station Type Date Time Source
RPLL TAF 2018/12/09 18:03 UTC NOAA

TAF RPLL 091700Z 0918/1024 10008KT 9999 FEW025 SCT100 TX33/1006Z TN25/0921Z
TEMPO 0918/0924 06004KT
TEMPO 1003/1009 11014KT FEW022CB FEW023 BKN100


Example: see airport list